createdAt,value
2022-10-19T00:01:05.030Z,10.1
2022-10-19T00:02:21.328Z,10.1
2022-10-19T00:03:37.612Z,10.1
2022-10-19T00:04:53.930Z,10.1
2022-10-19T00:06:10.220Z,10.1
2022-10-19T00:07:25.517Z,10
2022-10-19T00:08:41.804Z,10.1
2022-10-19T00:09:58.109Z,10.1
2022-10-19T00:11:14.408Z,10.1
2022-10-19T00:12:30.700Z,10.1
2022-10-19T00:13:47.000Z,10.1
2022-10-19T00:15:03.284Z,10.2
2022-10-19T00:16:19.565Z,10.2
2022-10-19T00:17:35.877Z,10.2
2022-10-19T00:18:52.156Z,10.1
2022-10-19T00:20:08.459Z,10.1
2022-10-19T00:21:24.747Z,10
2022-10-19T00:22:41.037Z,10.1
2022-10-19T00:23:56.345Z,10
2022-10-19T00:25:12.645Z,10
2022-10-19T00:26:28.949Z,10
2022-10-19T00:27:45.244Z,9.9
2022-10-19T00:29:01.526Z,9.9
2022-10-19T00:30:17.814Z,9.9
2022-10-19T00:31:34.133Z,9.9
2022-10-19T00:32:50.415Z,9.9
2022-10-19T00:34:06.692Z,9.8
2022-10-19T00:35:22.998Z,9.8
2022-10-19T00:36:39.279Z,9.8
2022-10-19T00:37:55.580Z,9.7
2022-10-19T00:39:11.877Z,9.7
2022-10-19T00:40:27.183Z,9.7
2022-10-19T00:41:43.480Z,9.7
2022-10-19T00:42:59.775Z,9.7
2022-10-19T00:44:16.077Z,9.6
2022-10-19T00:45:32.370Z,9.6
2022-10-19T00:46:48.647Z,9.5
2022-10-19T00:48:04.964Z,9.5
2022-10-19T00:49:21.250Z,9.5
2022-10-19T00:50:37.536Z,9.5
2022-10-19T00:51:53.829Z,9.5
2022-10-19T00:53:10.124Z,9.5
2022-10-19T00:54:26.420Z,9.5
2022-10-19T00:55:42.714Z,9.4
2022-10-19T00:56:58.017Z,9.4
2022-10-19T00:58:14.316Z,9.4
2022-10-19T00:59:30.615Z,9.3
2022-10-19T01:00:46.913Z,9.3
2022-10-19T01:02:03.193Z,9.3
2022-10-19T01:03:18.519Z,9.3
2022-10-19T01:04:34.802Z,9.2
2022-10-19T01:05:51.089Z,9.2
2022-10-19T01:07:07.392Z,9.2
2022-10-19T01:08:23.682Z,9.2
2022-10-19T01:09:39.991Z,9.1
2022-10-19T01:10:56.284Z,9.1
2022-10-19T01:12:12.569Z,9.1
2022-10-19T01:13:28.864Z,9.1
2022-10-19T01:14:45.150Z,9.1
2022-10-19T01:16:01.444Z,9.1
2022-10-19T01:17:17.755Z,9.1
2022-10-19T01:18:34.029Z,9.1
2022-10-19T01:19:49.348Z,9
2022-10-19T01:21:05.647Z,9
2022-10-19T01:22:21.941Z,9
2022-10-19T01:23:38.240Z,9
2022-10-19T01:24:54.536Z,8.9
2022-10-19T01:26:10.820Z,8.9
2022-10-19T01:27:27.123Z,8.9
2022-10-19T01:28:43.408Z,8.9
2022-10-19T01:29:59.696Z,8.8
2022-10-19T01:31:15.995Z,8.8
2022-10-19T01:32:32.284Z,8.8
2022-10-19T01:33:48.585Z,8.8
2022-10-19T01:35:04.877Z,8.8
2022-10-19T01:36:20.188Z,8.8
2022-10-19T01:37:36.493Z,8.8
2022-10-19T01:38:52.773Z,8.8
2022-10-19T01:40:09.061Z,8.8
2022-10-19T01:41:25.359Z,8.8
2022-10-19T01:42:41.658Z,8.8
2022-10-19T01:43:57.950Z,8.9
2022-10-19T01:45:14.245Z,8.9
2022-10-19T01:46:30.545Z,8.9
2022-10-19T01:47:46.833Z,9
2022-10-19T01:49:03.127Z,9
2022-10-19T01:50:19.414Z,9
2022-10-19T01:51:35.715Z,9.1
2022-10-19T01:52:51.035Z,9.1
2022-10-19T01:54:07.314Z,9.1
2022-10-19T01:55:23.606Z,9.1
2022-10-19T01:56:39.919Z,9.1
2022-10-19T01:57:56.202Z,9.1
2022-10-19T01:59:12.495Z,9.1
2022-10-19T02:00:28.785Z,9.1
2022-10-19T02:01:45.083Z,9.1
2022-10-19T02:03:01.395Z,9.1
2022-10-19T02:04:17.677Z,9.1
2022-10-19T02:05:33.963Z,9.1
2022-10-19T02:06:50.250Z,9.2
2022-10-19T02:08:06.561Z,9.1
2022-10-19T02:09:21.872Z,9.1
2022-10-19T02:10:38.158Z,9.1
2022-10-19T02:11:54.469Z,9.1
2022-10-19T02:13:10.746Z,9.1
2022-10-19T02:14:27.041Z,9
2022-10-19T02:15:43.329Z,9
2022-10-19T02:16:59.630Z,9
2022-10-19T02:18:15.929Z,9
2022-10-19T02:19:32.219Z,9.1
2022-10-19T02:20:48.501Z,9
2022-10-19T02:22:04.812Z,9
2022-10-19T02:23:21.099Z,9
2022-10-19T02:24:37.393Z,9
2022-10-19T02:25:52.691Z,9
2022-10-19T02:27:08.985Z,9.1
2022-10-19T02:28:25.296Z,9.1
2022-10-19T02:29:41.585Z,9.1
2022-10-19T02:30:57.871Z,9
2022-10-19T02:32:14.179Z,9
2022-10-19T02:33:30.464Z,9
2022-10-19T02:34:46.753Z,9
2022-10-19T02:36:03.053Z,9
2022-10-19T02:37:19.350Z,9
2022-10-19T02:38:35.644Z,8.9
2022-10-19T02:39:51.933Z,8.9
2022-10-19T02:41:08.219Z,8.9
2022-10-19T02:42:23.534Z,8.8
2022-10-19T02:43:39.837Z,8.8
2022-10-19T02:44:56.120Z,8.8
2022-10-19T02:46:12.423Z,8.8
2022-10-19T02:47:28.713Z,8.7
2022-10-19T02:48:45.009Z,8.7
2022-10-19T02:50:01.317Z,8.7
2022-10-19T02:51:17.590Z,8.7
2022-10-19T02:52:33.899Z,8.7
2022-10-19T02:53:50.177Z,8.7
2022-10-19T02:55:06.472Z,8.6
2022-10-19T02:56:22.782Z,8.7
2022-10-19T02:57:39.060Z,8.7
2022-10-19T02:58:54.374Z,8.7
2022-10-19T03:00:10.673Z,8.7
2022-10-19T03:01:26.965Z,8.6
2022-10-19T03:02:43.257Z,8.6
2022-10-19T03:03:59.544Z,8.6
2022-10-19T03:05:15.848Z,8.6
2022-10-19T03:06:32.138Z,8.6
2022-10-19T03:07:48.433Z,8.6
2022-10-19T03:09:04.730Z,8.6
2022-10-19T03:11:37.307Z,8.6
2022-10-19T03:12:53.611Z,8.6
2022-10-19T03:14:09.904Z,8.7
2022-10-19T03:15:25.206Z,8.7
2022-10-19T03:16:41.513Z,8.7
2022-10-19T03:17:57.806Z,8.7
2022-10-19T03:19:14.098Z,8.8
2022-10-19T03:20:30.384Z,8.8
2022-10-19T03:21:46.681Z,8.8
2022-10-19T03:23:02.969Z,8.9
2022-10-19T03:24:19.270Z,8.9
2022-10-19T03:25:35.561Z,8.9
2022-10-19T03:26:51.850Z,9
2022-10-19T03:28:08.146Z,9
2022-10-19T03:29:24.436Z,9
2022-10-19T03:30:40.747Z,9.1
2022-10-19T03:31:56.046Z,9.1
2022-10-19T03:33:12.346Z,9.1
2022-10-19T03:34:28.628Z,9.2
2022-10-19T03:35:44.940Z,9.2
2022-10-19T03:37:01.219Z,9.3
2022-10-19T03:38:17.518Z,9.3
2022-10-19T03:39:33.809Z,9.3
2022-10-19T03:40:50.102Z,9.3
2022-10-19T03:42:06.400Z,9.4
2022-10-19T03:43:22.706Z,9.4
2022-10-19T03:44:38.994Z,9.4
2022-10-19T03:45:55.286Z,9.4
2022-10-19T03:47:11.585Z,9.5
2022-10-19T03:48:26.883Z,9.5
2022-10-19T03:49:43.174Z,9.5
2022-10-19T03:50:59.474Z,9.5
2022-10-19T03:52:15.773Z,9.5
2022-10-19T03:53:32.057Z,9.5
2022-10-19T03:54:48.347Z,9.5
2022-10-19T03:56:04.647Z,9.6
2022-10-19T03:57:20.946Z,9.6
2022-10-19T03:58:37.238Z,9.6
2022-10-19T03:59:53.529Z,9.7
2022-10-19T04:01:09.833Z,9.7
2022-10-19T04:02:26.114Z,9.7
2022-10-19T04:03:42.410Z,9.7
2022-10-19T04:04:57.725Z,9.7
2022-10-19T04:06:14.010Z,9.7
2022-10-19T04:07:30.317Z,9.7
2022-10-19T04:08:46.595Z,9.8
2022-10-19T04:10:02.891Z,9.8
2022-10-19T04:11:19.193Z,9.8
2022-10-19T04:12:35.481Z,9.9
2022-10-19T04:13:51.789Z,9.8
2022-10-19T04:15:08.069Z,9.9
2022-10-19T04:16:24.358Z,9.8
2022-10-19T04:17:40.658Z,9.9
2022-10-19T04:18:56.967Z,9.9
2022-10-19T04:20:13.250Z,9.8
2022-10-19T04:21:28.564Z,9.8
2022-10-19T04:22:44.855Z,9.8
2022-10-19T04:24:01.000Z,9.8
2022-10-19T04:25:17.447Z,9.8
2022-10-19T04:26:33.742Z,9.8
2022-10-19T04:27:50.028Z,9.7
2022-10-19T04:29:06.330Z,9.7
2022-10-19T04:30:22.608Z,9.7
2022-10-19T04:31:38.907Z,9.7
2022-10-19T04:32:55.195Z,9.6
2022-10-19T04:34:11.495Z,9.6
2022-10-19T04:35:27.789Z,9.6
2022-10-19T04:36:44.086Z,9.6
2022-10-19T04:37:59.400Z,9.6
2022-10-19T04:39:15.685Z,9.6
2022-10-19T04:40:31.981Z,9.6
2022-10-19T04:41:48.285Z,9.5
2022-10-19T04:43:04.567Z,9.5
2022-10-19T04:44:20.861Z,9.5
2022-10-19T04:45:37.159Z,9.5
2022-10-19T04:46:53.450Z,9.4
2022-10-19T04:48:09.755Z,9.4
2022-10-19T04:49:26.044Z,9.4
2022-10-19T04:50:42.330Z,9.4
2022-10-19T04:51:58.623Z,9.5
2022-10-19T04:53:14.922Z,9.5
2022-10-19T04:54:30.235Z,9.4
2022-10-19T04:55:46.523Z,9.5
2022-10-19T04:57:02.815Z,9.5
2022-10-19T04:58:19.110Z,9.5
2022-10-19T04:59:35.421Z,9.5
2022-10-19T05:00:51.709Z,9.5
2022-10-19T05:02:07.991Z,9.5
2022-10-19T05:03:24.295Z,9.5
2022-10-19T05:04:40.585Z,9.4
2022-10-19T05:05:56.885Z,9.5
2022-10-19T05:07:13.168Z,9.5
2022-10-19T05:08:29.466Z,9.4
2022-10-19T05:09:45.704Z,9.4
2022-10-19T05:11:00.962Z,9.4
2022-10-19T05:12:17.227Z,9.4
2022-10-19T05:13:33.455Z,9.4
2022-10-19T05:14:49.752Z,9.4
2022-10-19T05:16:06.000Z,9.4
2022-10-19T05:17:22.254Z,9.3
2022-10-19T05:18:37.553Z,9.3
2022-10-19T05:19:53.861Z,9.3
2022-10-19T05:21:10.103Z,9.3
2022-10-19T05:22:26.340Z,9.3
2022-10-19T05:23:42.579Z,9.3
2022-10-19T05:24:58.814Z,9.3
2022-10-19T05:26:15.054Z,9.3
2022-10-19T05:27:31.311Z,9.3
2022-10-19T05:28:47.545Z,9.3
2022-10-19T05:30:03.783Z,9.3
2022-10-19T05:31:20.024Z,9.2
2022-10-19T05:32:36.263Z,9.2
2022-10-19T05:33:52.502Z,9.1
2022-10-19T05:35:07.753Z,9.1
2022-10-19T05:36:23.991Z,9.1
2022-10-19T05:37:40.233Z,9.1
2022-10-19T05:38:56.489Z,9.1
2022-10-19T05:40:12.720Z,9.1
2022-10-19T05:41:28.962Z,9.1
2022-10-19T05:42:45.195Z,9.1
2022-10-19T05:44:01.449Z,9.1
2022-10-19T05:45:17.683Z,9.1
2022-10-19T05:46:33.928Z,9.1
2022-10-19T05:47:50.171Z,9.2
2022-10-19T05:49:06.391Z,9.2
2022-10-19T05:50:22.646Z,9.2
2022-10-19T05:51:37.894Z,9.2
2022-10-19T05:52:54.131Z,9.3
2022-10-19T05:54:10.371Z,9.3
2022-10-19T05:55:26.610Z,9.3
2022-10-19T05:56:42.853Z,9.4
2022-10-19T05:57:59.099Z,9.4
2022-10-19T05:59:15.330Z,9.4
2022-10-19T06:00:31.572Z,9.3
2022-10-19T06:01:47.810Z,9.4
2022-10-19T06:03:04.056Z,9.4
2022-10-19T06:04:20.296Z,9.4
2022-10-19T06:05:36.550Z,9.4
2022-10-19T06:06:52.778Z,9.4
2022-10-19T06:08:08.027Z,9.4
2022-10-19T06:09:24.262Z,9.4
2022-10-19T06:10:40.510Z,9.5
2022-10-19T06:11:56.747Z,9.5
2022-10-19T06:13:12.999Z,9.6
2022-10-19T06:14:29.233Z,9.6
2022-10-19T06:15:45.475Z,9.6
2022-10-19T06:17:01.703Z,9.6
2022-10-19T06:18:17.950Z,9.6
2022-10-19T06:19:34.182Z,9.7
2022-10-19T06:20:50.429Z,9.7
2022-10-19T06:22:06.671Z,9.7
2022-10-19T06:23:22.906Z,9.8
2022-10-19T06:24:38.175Z,9.8
2022-10-19T06:25:54.406Z,9.8
2022-10-19T06:27:10.643Z,9.8
2022-10-19T06:28:26.889Z,9.8
2022-10-19T06:29:43.117Z,9.7
2022-10-19T06:30:59.357Z,9.7
2022-10-19T06:32:15.597Z,9.8
2022-10-19T06:33:31.840Z,9.8
2022-10-19T06:34:48.079Z,9.9
2022-10-19T06:36:04.319Z,9.9
2022-10-19T06:37:20.570Z,9.9
2022-10-19T06:38:36.802Z,10
2022-10-19T06:39:53.038Z,10
2022-10-19T06:41:08.311Z,10
2022-10-19T06:42:24.540Z,10.1
2022-10-19T06:43:40.787Z,10.1
2022-10-19T06:44:57.029Z,10.2
2022-10-19T06:46:13.262Z,10.1
2022-10-19T06:47:29.496Z,10.1
2022-10-19T06:48:45.742Z,10.2
2022-10-19T06:50:01.977Z,10.1
2022-10-19T06:51:18.225Z,10.1
2022-10-19T06:52:34.461Z,10.1
2022-10-19T06:53:50.704Z,10.1
2022-10-19T06:55:06.938Z,10.1
2022-10-19T06:56:23.182Z,10.2
2022-10-19T06:57:38.441Z,10.2
2022-10-19T06:58:54.689Z,10.2
2022-10-19T07:00:10.922Z,10.1
2022-10-19T07:01:27.162Z,10.1
2022-10-19T07:02:43.410Z,10.2
2022-10-19T07:03:59.639Z,10.2
2022-10-19T07:05:15.878Z,10.2
2022-10-19T07:06:32.127Z,10.3
2022-10-19T07:07:48.353Z,10.2
2022-10-19T07:09:04.604Z,10.2
2022-10-19T07:10:20.836Z,10.3
2022-10-19T07:11:37.075Z,10.3
2022-10-19T07:12:53.317Z,10.3
2022-10-19T07:14:08.568Z,10.3
2022-10-19T07:15:24.808Z,10.3
2022-10-19T07:16:41.046Z,10.3
2022-10-19T07:17:57.287Z,10.3
2022-10-19T07:19:13.543Z,10.3
2022-10-19T07:20:29.774Z,10.3
2022-10-19T07:21:46.020Z,10.3
2022-10-19T07:23:02.253Z,10.3
2022-10-19T07:24:18.494Z,10.3
2022-10-19T07:25:34.728Z,10.3
2022-10-19T07:26:50.967Z,10.4
2022-10-19T07:28:07.204Z,10.3
2022-10-19T07:29:23.451Z,10.4
2022-10-19T07:30:39.701Z,10.4
2022-10-19T07:31:54.949Z,10.4
2022-10-19T07:33:11.197Z,10.5
2022-10-19T07:34:27.434Z,10.4
2022-10-19T07:35:43.664Z,10.5
2022-10-19T07:36:59.908Z,10.5
2022-10-19T07:38:16.161Z,10.5
2022-10-19T07:39:32.385Z,10.6
2022-10-19T07:40:48.642Z,10.6
2022-10-19T07:42:04.871Z,10.6
2022-10-19T07:43:21.102Z,10.6
2022-10-19T07:44:37.360Z,10.6
2022-10-19T07:45:53.592Z,10.7
2022-10-19T07:47:09.825Z,10.7
2022-10-19T07:48:25.090Z,10.8
2022-10-19T07:49:41.318Z,10.8
2022-10-19T07:50:57.559Z,10.8
2022-10-19T07:52:13.804Z,10.8
2022-10-19T07:53:30.045Z,10.8
2022-10-19T07:54:46.296Z,10.8
2022-10-19T07:56:02.522Z,10.8
2022-10-19T07:57:18.763Z,10.8
2022-10-19T07:58:35.001Z,10.8
2022-10-19T07:59:51.254Z,10.8
2022-10-19T08:01:07.491Z,10.9
2022-10-19T08:02:23.728Z,10.9
2022-10-19T08:03:39.977Z,10.9
2022-10-19T08:04:55.217Z,10.9
2022-10-19T08:06:11.471Z,10.9
2022-10-19T08:07:27.709Z,10.8
2022-10-19T08:08:43.936Z,10.8
2022-10-19T08:10:00.183Z,10.9
2022-10-19T08:11:16.414Z,10.9
2022-10-19T08:12:32.664Z,10.9
2022-10-19T08:13:48.912Z,10.9
2022-10-19T08:15:05.148Z,10.9
2022-10-19T08:16:21.381Z,10.9
2022-10-19T08:17:37.626Z,11
2022-10-19T08:18:53.870Z,10.9
2022-10-19T08:20:10.101Z,11
2022-10-19T08:21:25.363Z,10.9
2022-10-19T08:22:41.597Z,11
2022-10-19T08:23:57.830Z,11
2022-10-19T08:25:14.068Z,11.1
2022-10-19T08:26:30.312Z,11.1
2022-10-19T08:27:46.563Z,11.2
2022-10-19T08:29:02.796Z,11.2
2022-10-19T08:30:19.041Z,11.3
2022-10-19T08:31:35.270Z,11.3
2022-10-19T08:32:51.518Z,11.3
2022-10-19T08:34:07.748Z,11.3
2022-10-19T08:35:23.998Z,11.2
2022-10-19T08:36:40.236Z,11.2
2022-10-19T08:37:55.496Z,11.3
2022-10-19T08:39:11.721Z,11.3
2022-10-19T08:40:27.974Z,11.3
2022-10-19T08:41:44.213Z,11.3
2022-10-19T08:43:00.457Z,11.3
2022-10-19T08:44:16.691Z,11.3
2022-10-19T08:45:32.930Z,11.3
2022-10-19T08:46:49.165Z,11.3
2022-10-19T08:48:05.410Z,11.3
2022-10-19T08:49:21.644Z,11.3
2022-10-19T08:50:37.884Z,11.3
2022-10-19T08:51:54.134Z,11.3
2022-10-19T08:53:10.359Z,11.3
2022-10-19T08:54:25.628Z,11.4
2022-10-19T08:55:41.859Z,11.4
2022-10-19T08:56:58.095Z,11.4
2022-10-19T08:58:14.341Z,11.4
2022-10-19T08:59:30.579Z,11.4
2022-10-19T09:00:46.813Z,11.5
2022-10-19T09:02:03.063Z,11.5
2022-10-19T09:03:19.000Z,11.5
2022-10-19T09:04:35.532Z,11.6
2022-10-19T09:05:51.784Z,11.6
2022-10-19T09:07:08.015Z,11.6
2022-10-19T09:08:24.270Z,11.6
2022-10-19T09:09:40.502Z,11.6
2022-10-19T09:10:55.754Z,11.7
2022-10-19T09:12:11.992Z,11.7
2022-10-19T09:13:28.234Z,11.8
2022-10-19T09:14:44.471Z,11.9
2022-10-19T09:16:00.718Z,11.9
2022-10-19T09:17:16.961Z,12
2022-10-19T09:18:33.188Z,11.9
2022-10-19T09:19:49.421Z,11.9
2022-10-19T09:21:05.677Z,12
2022-10-19T09:22:21.904Z,12
2022-10-19T09:23:38.145Z,12.1
2022-10-19T09:24:54.384Z,12.1
2022-10-19T09:26:10.620Z,12.2
2022-10-19T09:27:25.874Z,12.2
2022-10-19T09:28:42.115Z,12.3
2022-10-19T09:29:58.365Z,12.4
2022-10-19T09:31:14.593Z,12.4
2022-10-19T09:32:30.851Z,12.5
2022-10-19T09:33:46.101Z,12.5
2022-10-19T09:35:02.333Z,12.6
2022-10-19T09:36:18.585Z,12.6
2022-10-19T09:37:34.821Z,12.4
2022-10-19T09:38:51.061Z,12.4
2022-10-19T09:40:07.296Z,12.3
2022-10-19T09:41:23.527Z,12.4
2022-10-19T09:42:39.781Z,12.4
2022-10-19T09:43:56.006Z,12.4
2022-10-19T09:45:12.242Z,12.5
2022-10-19T09:46:28.500Z,13.2
2022-10-19T09:47:44.731Z,14.1
2022-10-19T09:49:00.961Z,14.7
2022-10-19T09:50:16.229Z,14.7
2022-10-19T09:51:32.464Z,14.4
2022-10-19T09:52:48.709Z,14
2022-10-19T09:54:04.936Z,14.1
2022-10-19T09:55:21.173Z,14.4
2022-10-19T09:56:37.406Z,14.5
2022-10-19T09:57:53.659Z,14.5
2022-10-19T09:59:09.882Z,14.3
2022-10-19T10:00:26.120Z,14
2022-10-19T10:01:42.368Z,13.8
2022-10-19T10:02:58.605Z,13.4
2022-10-19T10:04:14.836Z,13.2
2022-10-19T10:05:31.078Z,12.9
2022-10-19T10:06:46.329Z,12.7
2022-10-19T10:08:02.579Z,12.4
2022-10-19T10:09:18.811Z,12.3
2022-10-19T10:10:35.048Z,12.3
2022-10-19T10:11:51.292Z,12.1
2022-10-19T10:13:07.529Z,12.1
2022-10-19T10:14:23.766Z,12.1
2022-10-19T10:15:39.997Z,12.1
2022-10-19T10:16:56.253Z,12.2
2022-10-19T10:18:12.481Z,12.2
2022-10-19T10:19:28.723Z,12.3
2022-10-19T10:20:44.956Z,12.4
2022-10-19T10:22:01.191Z,12.4
2022-10-19T10:23:16.454Z,12.4
2022-10-19T10:24:32.703Z,12.3
2022-10-19T10:25:48.924Z,12.3
2022-10-19T10:27:05.162Z,12.3
2022-10-19T10:28:21.409Z,12.3
2022-10-19T10:29:37.639Z,12.3
2022-10-19T10:30:53.884Z,12.4
2022-10-19T10:32:10.128Z,12.5
2022-10-19T10:33:26.359Z,12.5
2022-10-19T10:34:42.592Z,12.5
2022-10-19T10:35:58.838Z,12.5
2022-10-19T10:37:15.068Z,12.5
2022-10-19T10:38:31.309Z,12.7
2022-10-19T10:39:46.564Z,12.8
2022-10-19T10:41:02.808Z,12.8
2022-10-19T10:42:19.044Z,12.8
2022-10-19T10:43:35.285Z,12.8
2022-10-19T10:44:51.524Z,12.7
2022-10-19T10:46:07.760Z,12.7
2022-10-19T10:47:24.004Z,12.7
2022-10-19T10:48:40.234Z,12.7
2022-10-19T10:49:56.480Z,12.6
2022-10-19T10:51:12.723Z,12.7
2022-10-19T10:52:28.958Z,12.7
2022-10-19T10:53:45.192Z,12.7
2022-10-19T10:55:01.435Z,12.8
2022-10-19T10:56:16.692Z,12.7
2022-10-19T10:57:32.934Z,12.6
2022-10-19T10:58:49.161Z,12.6
2022-10-19T11:00:05.400Z,12.6
2022-10-19T11:01:21.634Z,12.7
2022-10-19T11:02:37.889Z,12.7
2022-10-19T11:03:54.123Z,12.7
2022-10-19T11:05:10.350Z,12.6
2022-10-19T11:06:26.589Z,12.6
2022-10-19T11:07:42.833Z,12.6
2022-10-19T11:08:59.066Z,12.5
2022-10-19T11:10:15.305Z,12.5
2022-10-19T11:11:31.541Z,12.6
2022-10-19T11:12:46.812Z,12.5
2022-10-19T11:14:03.043Z,12.5
2022-10-19T11:15:19.292Z,12.6
2022-10-19T11:16:35.518Z,12.6
2022-10-19T11:17:51.755Z,12.7
2022-10-19T11:19:07.993Z,12.6
2022-10-19T11:20:24.234Z,12.6
2022-10-19T11:21:40.481Z,12.7
2022-10-19T11:22:56.710Z,12.7
2022-10-19T11:24:12.951Z,12.7
2022-10-19T11:25:29.187Z,12.7
2022-10-19T11:26:45.433Z,12.6
2022-10-19T11:28:01.665Z,12.6
2022-10-19T11:29:16.937Z,12.6
2022-10-19T11:30:33.159Z,12.7
2022-10-19T11:31:49.411Z,12.8
2022-10-19T11:33:05.639Z,12.9
2022-10-19T11:34:21.889Z,12.9
2022-10-19T11:35:38.116Z,12.8
2022-10-19T11:36:54.352Z,12.8
2022-10-19T11:38:10.602Z,12.8
2022-10-19T11:39:26.832Z,12.8
2022-10-19T11:40:43.073Z,12.8
2022-10-19T11:41:59.328Z,12.8
2022-10-19T11:43:15.548Z,12.8
2022-10-19T11:44:31.792Z,12.8
2022-10-19T11:45:47.045Z,12.7
2022-10-19T11:47:03.288Z,12.6
2022-10-19T11:48:19.518Z,12.5
2022-10-19T11:49:35.778Z,12.5
2022-10-19T11:50:51.999Z,12.5
2022-10-19T11:52:08.240Z,12.6
2022-10-19T11:53:24.479Z,12.6
2022-10-19T11:54:40.723Z,12.7
2022-10-19T11:55:56.961Z,12.7
2022-10-19T11:57:13.199Z,12.8
2022-10-19T11:58:29.432Z,12.8
2022-10-19T11:59:45.686Z,12.7
2022-10-19T12:01:01.911Z,12.7
2022-10-19T12:02:17.171Z,12.6
2022-10-19T12:03:33.407Z,12.6
2022-10-19T12:04:49.649Z,12.6
2022-10-19T12:06:05.892Z,12.5
2022-10-19T12:07:22.128Z,12.5
2022-10-19T12:08:38.361Z,12.5
2022-10-19T12:09:54.602Z,12.5
2022-10-19T12:11:10.844Z,12.5
2022-10-19T12:12:27.084Z,12.6
2022-10-19T12:13:43.317Z,12.6
2022-10-19T12:14:59.554Z,12.6
2022-10-19T12:16:15.802Z,12.6
2022-10-19T12:17:32.036Z,12.7
2022-10-19T12:18:47.286Z,12.7
2022-10-19T12:20:03.529Z,12.5
2022-10-19T12:21:19.777Z,12.5
2022-10-19T12:22:36.014Z,12.5
2022-10-19T12:23:52.245Z,12.6
2022-10-19T12:25:08.495Z,12.5
2022-10-19T12:26:24.733Z,12.6
2022-10-19T12:27:40.961Z,12.5
2022-10-19T12:28:57.205Z,12.5
2022-10-19T12:30:13.436Z,12.5
2022-10-19T12:31:29.680Z,12.4
2022-10-19T12:32:45.915Z,12.4
2022-10-19T12:34:02.149Z,12.4
2022-10-19T12:35:17.404Z,12.4
2022-10-19T12:36:33.643Z,12.5
2022-10-19T12:37:49.887Z,12.4
2022-10-19T12:39:06.136Z,12.4
2022-10-19T12:40:22.368Z,12.3
2022-10-19T12:41:38.618Z,12.4
2022-10-19T12:42:54.848Z,12.3
2022-10-19T12:44:11.089Z,12.4
2022-10-19T12:45:27.316Z,12.4
2022-10-19T12:46:43.558Z,12.4
2022-10-19T12:47:59.793Z,12.3
2022-10-19T12:49:16.038Z,12.3
2022-10-19T12:50:32.286Z,12.3
2022-10-19T12:51:47.544Z,12.4
2022-10-19T12:53:03.783Z,12.4
2022-10-19T12:54:20.013Z,12.4
2022-10-19T12:55:36.250Z,12.4
2022-10-19T12:56:52.491Z,12.4
2022-10-19T12:58:08.728Z,12.4
2022-10-19T12:59:24.975Z,12.4
2022-10-19T13:00:41.202Z,12.4
2022-10-19T13:01:57.453Z,12.5
2022-10-19T13:03:13.686Z,12.5
2022-10-19T13:04:29.923Z,12.5
2022-10-19T13:05:46.167Z,12.5
2022-10-19T13:07:02.413Z,12.6
2022-10-19T13:08:17.656Z,12.5
2022-10-19T13:09:33.894Z,12.6
2022-10-19T13:10:50.144Z,12.6
2022-10-19T13:12:06.369Z,12.5
2022-10-19T13:13:22.617Z,12.5
2022-10-19T13:14:38.859Z,12.5
2022-10-19T13:15:55.095Z,12.4
2022-10-19T13:17:11.338Z,12.4
2022-10-19T13:18:27.566Z,12.4
2022-10-19T13:19:43.805Z,12.5
2022-10-19T13:21:00.048Z,12.5
2022-10-19T13:22:16.283Z,12.6
2022-10-19T13:23:32.523Z,12.6
2022-10-19T13:24:47.780Z,12.6
2022-10-19T13:26:04.015Z,12.7
2022-10-19T13:27:20.259Z,12.6
2022-10-19T13:28:36.493Z,12.6
2022-10-19T13:29:52.742Z,12.5
2022-10-19T13:31:08.973Z,12.6
2022-10-19T13:32:25.226Z,12.6
2022-10-19T13:33:41.455Z,12.7
2022-10-19T13:34:57.701Z,12.8
2022-10-19T13:36:13.932Z,12.8
2022-10-19T13:37:30.173Z,12.8
2022-10-19T13:38:46.418Z,12.8
2022-10-19T13:40:02.657Z,12.8
2022-10-19T13:41:17.900Z,12.8
2022-10-19T13:42:34.150Z,12.8
2022-10-19T13:43:50.379Z,12.8
2022-10-19T13:45:06.634Z,12.8
2022-10-19T13:46:22.871Z,12.7
2022-10-19T13:47:39.100Z,12.8
2022-10-19T13:48:54.362Z,12.8
2022-10-19T13:50:10.595Z,12.8
2022-10-19T13:51:26.834Z,12.8
2022-10-19T13:52:43.073Z,12.8
2022-10-19T13:53:59.320Z,12.8
2022-10-19T13:55:15.549Z,12.8
2022-10-19T13:56:31.798Z,12.8
2022-10-19T13:57:48.028Z,12.8
2022-10-19T13:59:04.276Z,12.8
2022-10-19T14:00:20.516Z,12.8
2022-10-19T14:01:36.750Z,12.8
2022-10-19T14:02:52.987Z,12.8
2022-10-19T14:04:09.227Z,12.8
2022-10-19T14:05:24.480Z,12.8
2022-10-19T14:06:40.717Z,12.9
2022-10-19T14:07:56.959Z,12.9
2022-10-19T14:09:13.207Z,12.9
2022-10-19T14:10:29.432Z,12.9
2022-10-19T14:11:45.672Z,12.9
2022-10-19T14:13:01.907Z,12.9
2022-10-19T14:14:18.163Z,13
2022-10-19T14:15:34.395Z,13
2022-10-19T14:16:50.633Z,12.9
2022-10-19T14:18:06.878Z,12.8
2022-10-19T14:19:23.112Z,12.7
2022-10-19T14:20:39.346Z,12.7
2022-10-19T14:21:54.602Z,12.7
2022-10-19T14:23:10.844Z,12.7
2022-10-19T14:24:27.077Z,12.7
2022-10-19T14:25:43.327Z,12.7
2022-10-19T14:26:59.561Z,12.7
2022-10-19T14:28:15.789Z,12.7
2022-10-19T14:29:32.029Z,12.7
2022-10-19T14:30:48.275Z,12.7
2022-10-19T14:32:04.504Z,12.7
2022-10-19T14:33:20.751Z,12.7
2022-10-19T14:34:36.985Z,12.7
2022-10-19T14:35:53.222Z,12.7
2022-10-19T14:37:09.461Z,12.7
2022-10-19T14:38:24.713Z,12.7
2022-10-19T14:39:40.956Z,12.6
2022-10-19T14:40:57.195Z,12.6
2022-10-19T14:42:13.432Z,12.6
2022-10-19T14:43:29.670Z,12.5
2022-10-19T14:44:45.919Z,12.5
2022-10-19T14:46:02.155Z,12.5
2022-10-19T14:47:18.389Z,12.4
2022-10-19T14:48:34.622Z,12.3
2022-10-19T14:49:50.866Z,12.3
2022-10-19T14:51:07.111Z,12.3
2022-10-19T14:52:23.340Z,12.3
2022-10-19T14:53:39.587Z,12.3
2022-10-19T14:54:54.844Z,12.4
2022-10-19T14:56:11.085Z,12.4
2022-10-19T14:57:27.313Z,12.4
2022-10-19T14:58:43.555Z,12.4
2022-10-19T14:59:59.794Z,12.4
2022-10-19T15:01:16.039Z,12.4
2022-10-19T15:02:32.280Z,12.4
2022-10-19T15:03:48.508Z,12.4
2022-10-19T15:05:04.753Z,12.3
2022-10-19T15:06:20.994Z,12.2
2022-10-19T15:07:37.227Z,12.1
2022-10-19T15:08:53.462Z,12.1
2022-10-19T15:10:09.705Z,12
2022-10-19T15:11:24.958Z,12
2022-10-19T15:12:41.198Z,11.9
2022-10-19T15:13:57.434Z,12
2022-10-19T15:15:13.673Z,12
2022-10-19T15:16:29.911Z,12
2022-10-19T15:17:46.152Z,12
2022-10-19T15:19:02.400Z,12
2022-10-19T15:20:18.626Z,12.1
2022-10-19T15:21:34.867Z,12
2022-10-19T15:22:51.111Z,12
2022-10-19T15:24:07.362Z,12
2022-10-19T15:25:23.592Z,11.9
2022-10-19T15:26:39.823Z,12
2022-10-19T15:27:55.089Z,12
2022-10-19T15:29:11.332Z,12
2022-10-19T15:30:27.557Z,12
2022-10-19T15:31:43.804Z,11.9
2022-10-19T15:33:00.042Z,11.8
2022-10-19T15:34:16.276Z,11.8
2022-10-19T15:35:32.512Z,11.7
2022-10-19T15:36:48.754Z,11.6
2022-10-19T15:38:04.993Z,11.6
2022-10-19T15:39:21.230Z,11.6
2022-10-19T15:40:37.466Z,11.5
2022-10-19T15:41:53.702Z,11.5
2022-10-19T15:43:09.950Z,11.4
2022-10-19T15:44:25.204Z,11.5
2022-10-19T15:45:41.438Z,11.5
2022-10-19T15:46:57.686Z,11.5
2022-10-19T15:48:13.920Z,11.5
2022-10-19T15:49:30.153Z,11.5
2022-10-19T15:50:46.396Z,11.5
2022-10-19T15:52:02.628Z,11.5
2022-10-19T15:53:18.869Z,11.4
2022-10-19T15:54:35.110Z,11.5
2022-10-19T15:55:51.355Z,11.5
2022-10-19T15:57:07.598Z,11.5
2022-10-19T15:58:23.828Z,11.5
2022-10-19T15:59:40.063Z,11.5
2022-10-19T16:00:55.317Z,11.5
2022-10-19T16:02:11.568Z,11.5
2022-10-19T16:03:27.809Z,11.4
2022-10-19T16:04:44.038Z,11.4
2022-10-19T16:06:00.298Z,11.3
2022-10-19T16:07:16.513Z,11.3
2022-10-19T16:08:32.755Z,11.3
2022-10-19T16:09:48.999Z,11.2
2022-10-19T16:11:05.240Z,11.1
2022-10-19T16:12:21.481Z,11.1
2022-10-19T16:13:37.708Z,11
2022-10-19T16:14:53.961Z,11
2022-10-19T16:16:10.190Z,11
2022-10-19T16:17:25.447Z,11
2022-10-19T16:18:41.683Z,11
2022-10-19T16:19:57.927Z,10.9
2022-10-19T16:21:14.160Z,10.9
2022-10-19T16:22:30.399Z,10.9
2022-10-19T16:23:46.651Z,10.8
2022-10-19T16:25:02.877Z,10.8
2022-10-19T16:26:19.120Z,10.8
2022-10-19T16:27:35.356Z,10.8
2022-10-19T16:28:51.594Z,10.8
2022-10-19T16:30:07.901Z,10.8
2022-10-19T16:31:24.127Z,10.8
2022-10-19T16:32:40.378Z,10.7
2022-10-19T16:33:55.632Z,10.7
2022-10-19T16:35:11.917Z,10.7
2022-10-19T16:36:28.215Z,10.7
2022-10-19T16:37:44.507Z,10.7
2022-10-19T16:39:00.814Z,10.7
2022-10-19T16:40:17.088Z,10.7
2022-10-19T16:41:33.383Z,10.7
2022-10-19T16:42:49.688Z,10.6
2022-10-19T16:44:05.975Z,10.7
2022-10-19T16:45:22.280Z,10.7
2022-10-19T16:46:38.558Z,10.7
2022-10-19T16:47:54.856Z,10.6
2022-10-19T16:49:11.157Z,10.6
2022-10-19T16:50:26.455Z,10.5
2022-10-19T16:51:42.748Z,10.6
2022-10-19T16:52:59.045Z,10.6
2022-10-19T16:54:15.347Z,10.6
2022-10-19T16:55:31.638Z,10.5
2022-10-19T16:56:47.931Z,10.5
2022-10-19T16:58:04.215Z,10.5
2022-10-19T16:59:20.519Z,10.5
2022-10-19T17:00:36.815Z,10.4
2022-10-19T17:01:53.097Z,10.3
2022-10-19T17:03:09.390Z,10.3
2022-10-19T17:04:25.695Z,10.2
2022-10-19T17:05:41.987Z,10.2
2022-10-19T17:06:57.285Z,10.1
2022-10-19T17:08:13.585Z,10.1
2022-10-19T17:09:29.878Z,10
2022-10-19T17:10:46.173Z,9.9
2022-10-19T17:12:02.469Z,9.9
2022-10-19T17:13:18.766Z,9.7